sensor_id;sensor_type;location;lat;lon;timestamp;P1;durP1;ratioP1;P2;durP2;ratioP2
75684;SDS011;64298;46.050;38.164;2023-02-04T00:00:45;5.00;;;1.55;;
75684;SDS011;64298;46.050;38.164;2023-02-04T00:03:13;5.28;;;1.60;;
75684;SDS011;64298;46.050;38.164;2023-02-04T00:05:40;4.40;;;1.60;;
75684;SDS011;64298;46.050;38.164;2023-02-04T00:08:25;6.45;;;1.92;;
75684;SDS011;64298;46.050;38.164;2023-02-04T00:10:51;10.52;;;3.58;;
75684;SDS011;64298;46.050;38.164;2023-02-04T00:13:17;7.63;;;3.70;;
75684;SDS011;64298;46.050;38.164;2023-02-04T00:15:43;8.18;;;3.40;;
75684;SDS011;64298;46.050;38.164;2023-02-04T00:18:09;9.07;;;2.67;;
75684;SDS011;64298;46.050;38.164;2023-02-04T00:20:35;11.07;;;4.28;;
75684;SDS011;64298;46.050;38.164;2023-02-04T00:23:01;9.32;;;4.07;;
75684;SDS011;64298;46.050;38.164;2023-02-04T00:25:27;8.50;;;2.80;;
75684;SDS011;64298;46.050;38.164;2023-02-04T00:27:53;7.75;;;2.33;;
75684;SDS011;64298;46.050;38.164;2023-02-04T00:30:19;7.35;;;3.40;;
75684;SDS011;64298;46.050;38.164;2023-02-04T00:32:45;8.10;;;2.53;;
75684;SDS011;64298;46.050;38.164;2023-02-04T00:35:30;10.38;;;3.00;;
75684;SDS011;64298;46.050;38.164;2023-02-04T00:37:56;9.57;;;3.75;;
75684;SDS011;64298;46.050;38.164;2023-02-04T00:40:24;11.52;;;4.00;;
75684;SDS011;64298;46.050;38.164;2023-02-04T00:42:50;8.68;;;3.45;;
75684;SDS011;64298;46.050;38.164;2023-02-04T00:45:16;11.77;;;2.47;;
75684;SDS011;64298;46.050;38.164;2023-02-04T00:47:42;8.23;;;3.75;;
75684;SDS011;64298;46.050;38.164;2023-02-04T00:50:09;7.57;;;3.38;;
75684;SDS011;64298;46.050;38.164;2023-02-04T00:52:36;11.65;;;4.68;;
75684;SDS011;64298;46.050;38.164;2023-02-04T00:55:02;11.30;;;4.63;;
75684;SDS011;64298;46.050;38.164;2023-02-04T00:57:28;9.13;;;3.72;;
75684;SDS011;64298;46.050;38.164;2023-02-04T00:59:54;8.77;;;3.83;;
75684;SDS011;64298;46.050;38.164;2023-02-04T01:02:20;7.95;;;2.40;;
75684;SDS011;64298;46.050;38.164;2023-02-04T01:04:45;5.22;;;1.67;;
75684;SDS011;64298;46.050;38.164;2023-02-04T01:07:11;7.00;;;2.28;;
75684;SDS011;64298;46.050;38.164;2023-02-04T01:09:37;9.23;;;2.53;;
75684;SDS011;64298;46.050;38.164;2023-02-04T01:12:03;6.85;;;2.15;;
75684;SDS011;64298;46.050;38.164;2023-02-04T01:14:29;6.05;;;2.50;;
75684;SDS011;64298;46.050;38.164;2023-02-04T01:16:56;5.80;;;2.55;;
75684;SDS011;64298;46.050;38.164;2023-02-04T01:19:24;11.25;;;2.65;;
75684;SDS011;64298;46.050;38.164;2023-02-04T01:21:50;4.60;;;2.08;;
75684;SDS011;64298;46.050;38.164;2023-02-04T01:24:16;5.88;;;2.40;;
75684;SDS011;64298;46.050;38.164;2023-02-04T01:27:01;6.60;;;2.75;;
75684;SDS011;64298;46.050;38.164;2023-02-04T01:29:27;4.32;;;2.17;;
75684;SDS011;64298;46.050;38.164;2023-02-04T01:31:53;8.10;;;3.00;;
75684;SDS011;64298;46.050;38.164;2023-02-04T01:34:19;5.45;;;2.72;;
75684;SDS011;64298;46.050;38.164;2023-02-04T01:36:45;6.00;;;2.50;;
75684;SDS011;64298;46.050;38.164;2023-02-04T01:39:11;7.18;;;3.10;;
75684;SDS011;64298;46.050;38.164;2023-02-04T01:41:38;8.40;;;3.90;;
75684;SDS011;64298;46.050;38.164;2023-02-04T01:44:04;10.02;;;5.55;;
75684;SDS011;64298;46.050;38.164;2023-02-04T01:46:30;10.35;;;3.70;;
75684;SDS011;64298;46.050;38.164;2023-02-04T01:48:59;10.18;;;3.92;;
75684;SDS011;64298;46.050;38.164;2023-02-04T01:51:26;5.45;;;3.80;;
75684;SDS011;64298;46.050;38.164;2023-02-04T01:53:54;10.48;;;4.80;;
75684;SDS011;64298;46.050;38.164;2023-02-04T01:56:24;9.73;;;3.80;;
75684;SDS011;64298;46.050;38.164;2023-02-04T01:59:10;9.13;;;4.00;;
75684;SDS011;64298;46.050;38.164;2023-02-04T02:01:39;10.38;;;4.70;;
75684;SDS011;64298;46.050;38.164;2023-02-04T02:04:08;10.18;;;4.30;;
75684;SDS011;64298;46.050;38.164;2023-02-04T02:06:40;10.07;;;4.25;;
75684;SDS011;64298;46.050;38.164;2023-02-04T02:09:08;9.05;;;3.03;;
75684;SDS011;64298;46.050;38.164;2023-02-04T02:11:34;12.02;;;4.45;;
75684;SDS011;64298;46.050;38.164;2023-02-04T02:14:01;10.13;;;4.55;;
75684;SDS011;64298;46.050;38.164;2023-02-04T02:16:28;11.48;;;4.85;;
75684;SDS011;64298;46.050;38.164;2023-02-04T02:18:54;12.88;;;5.40;;
75684;SDS011;64298;46.050;38.164;2023-02-04T02:21:30;11.23;;;4.80;;
75684;SDS011;64298;46.050;38.164;2023-02-04T02:24:26;11.93;;;4.75;;
75684;SDS011;64298;46.050;38.164;2023-02-04T02:26:55;9.68;;;4.78;;
75684;SDS011;64298;46.050;38.164;2023-02-04T02:29:23;14.50;;;6.03;;
75684;SDS011;64298;46.050;38.164;2023-02-04T02:31:50;11.80;;;4.90;;
75684;SDS011;64298;46.050;38.164;2023-02-04T02:34:16;12.30;;;5.55;;
75684;SDS011;64298;46.050;38.164;2023-02-04T02:36:43;12.15;;;5.30;;
75684;SDS011;64298;46.050;38.164;2023-02-04T02:39:09;12.10;;;4.80;;
75684;SDS011;64298;46.050;38.164;2023-02-04T02:41:36;11.10;;;5.30;;
75684;SDS011;64298;46.050;38.164;2023-02-04T02:44:02;13.55;;;5.80;;
75684;SDS011;64298;46.050;38.164;2023-02-04T02:46:29;11.43;;;5.28;;
75684;SDS011;64298;46.050;38.164;2023-02-04T02:48:55;8.77;;;5.03;;
75684;SDS011;64298;46.050;38.164;2023-02-04T02:51:22;11.98;;;5.32;;
75684;SDS011;64298;46.050;38.164;2023-02-04T02:53:48;13.55;;;5.88;;
75684;SDS011;64298;46.050;38.164;2023-02-04T02:56:15;13.88;;;6.15;;
75684;SDS011;64298;46.050;38.164;2023-02-04T02:58:43;10.35;;;6.03;;
75684;SDS011;64298;46.050;38.164;2023-02-04T03:01:09;11.32;;;5.07;;
75684;SDS011;64298;46.050;38.164;2023-02-04T03:03:39;12.40;;;4.88;;
75684;SDS011;64298;46.050;38.164;2023-02-04T03:06:15;12.05;;;5.20;;
75684;SDS011;64298;46.050;38.164;2023-02-04T03:08:46;11.07;;;5.07;;
75684;SDS011;64298;46.050;38.164;2023-02-04T03:11:33;14.32;;;5.45;;
75684;SDS011;64298;46.050;38.164;2023-02-04T03:14:00;14.02;;;6.65;;
75684;SDS011;64298;46.050;38.164;2023-02-04T03:16:28;9.05;;;4.00;;
75684;SDS011;64298;46.050;38.164;2023-02-04T03:19:16;14.13;;;5.38;;
75684;SDS011;64298;46.050;38.164;2023-02-04T03:21:42;13.20;;;5.90;;
75684;SDS011;64298;46.050;38.164;2023-02-04T03:24:09;13.05;;;5.05;;
75684;SDS011;64298;46.050;38.164;2023-02-04T03:26:36;13.38;;;4.65;;
75684;SDS011;64298;46.050;38.164;2023-02-04T03:29:05;13.05;;;4.68;;
75684;SDS011;64298;46.050;38.164;2023-02-04T03:31:36;5.72;;;2.83;;
75684;SDS011;64298;46.050;38.164;2023-02-04T03:34:02;12.85;;;5.53;;
75684;SDS011;64298;46.050;38.164;2023-02-04T03:36:29;17.15;;;6.53;;
75684;SDS011;64298;46.050;38.164;2023-02-04T03:38:55;16.55;;;6.13;;
75684;SDS011;64298;46.050;38.164;2023-02-04T03:41:21;14.18;;;7.07;;
75684;SDS011;64298;46.050;38.164;2023-02-04T03:43:47;16.52;;;7.07;;
75684;SDS011;64298;46.050;38.164;2023-02-04T03:46:13;7.18;;;2.47;;
75684;SDS011;64298;46.050;38.164;2023-02-04T03:48:39;13.23;;;4.88;;
75684;SDS011;64298;46.050;38.164;2023-02-04T03:51:05;6.80;;;3.22;;
75684;SDS011;64298;46.050;38.164;2023-02-04T03:53:31;10.70;;;4.30;;
75684;SDS011;64298;46.050;38.164;2023-02-04T03:55:57;8.85;;;4.63;;
75684;SDS011;64298;46.050;38.164;2023-02-04T03:58:23;10.57;;;4.10;;
75684;SDS011;64298;46.050;38.164;2023-02-04T04:00:49;14.48;;;5.90;;
75684;SDS011;64298;46.050;38.164;2023-02-04T04:03:15;13.02;;;5.22;;
75684;SDS011;64298;46.050;38.164;2023-02-04T04:05:41;13.30;;;5.07;;
75684;SDS011;64298;46.050;38.164;2023-02-04T04:08:07;13.20;;;6.05;;
75684;SDS011;64298;46.050;38.164;2023-02-04T04:10:33;13.02;;;5.45;;
75684;SDS011;64298;46.050;38.164;2023-02-04T04:12:59;12.88;;;5.28;;
75684;SDS011;64298;46.050;38.164;2023-02-04T04:15:25;11.32;;;5.30;;
75684;SDS011;64298;46.050;38.164;2023-02-04T04:17:51;15.40;;;5.90;;
75684;SDS011;64298;46.050;38.164;2023-02-04T04:20:17;13.05;;;4.68;;
75684;SDS011;64298;46.050;38.164;2023-02-04T04:22:43;12.98;;;6.72;;
75684;SDS011;64298;46.050;38.164;2023-02-04T04:25:10;12.38;;;6.05;;
75684;SDS011;64298;46.050;38.164;2023-02-04T04:27:36;12.98;;;5.72;;
75684;SDS011;64298;46.050;38.164;2023-02-04T04:30:02;12.45;;;5.22;;
75684;SDS011;64298;46.050;38.164;2023-02-04T04:32:28;13.15;;;5.03;;
75684;SDS011;64298;46.050;38.164;2023-02-04T04:34:54;11.13;;;5.30;;
75684;SDS011;64298;46.050;38.164;2023-02-04T04:37:20;11.52;;;5.70;;
75684;SDS011;64298;46.050;38.164;2023-02-04T04:39:46;8.60;;;4.43;;
75684;SDS011;64298;46.050;38.164;2023-02-04T04:42:12;12.57;;;5.15;;
75684;SDS011;64298;46.050;38.164;2023-02-04T04:44:38;6.68;;;2.88;;
75684;SDS011;64298;46.050;38.164;2023-02-04T04:47:04;14.45;;;6.90;;
75684;SDS011;64298;46.050;38.164;2023-02-04T04:49:30;13.93;;;6.50;;
75684;SDS011;64298;46.050;38.164;2023-02-04T04:51:56;12.80;;;5.95;;
75684;SDS011;64298;46.050;38.164;2023-02-04T04:54:22;13.93;;;5.35;;
75684;SDS011;64298;46.050;38.164;2023-02-04T04:56:48;12.95;;;6.60;;
75684;SDS011;64298;46.050;38.164;2023-02-04T04:59:14;20.98;;;5.72;;
75684;SDS011;64298;46.050;38.164;2023-02-04T05:01:39;12.98;;;6.10;;
75684;SDS011;64298;46.050;38.164;2023-02-04T05:04:05;13.80;;;5.72;;
75684;SDS011;64298;46.050;38.164;2023-02-04T05:06:32;14.63;;;7.38;;
75684;SDS011;64298;46.050;38.164;2023-02-04T05:08:58;12.27;;;5.68;;
75684;SDS011;64298;46.050;38.164;2023-02-04T05:11:24;14.35;;;6.03;;
75684;SDS011;64298;46.050;38.164;2023-02-04T05:13:50;11.10;;;5.68;;
75684;SDS011;64298;46.050;38.164;2023-02-04T05:16:16;11.77;;;5.55;;
75684;SDS011;64298;46.050;38.164;2023-02-04T05:18:42;13.30;;;6.60;;
75684;SDS011;64298;46.050;38.164;2023-02-04T05:21:08;13.68;;;6.32;;
75684;SDS011;64298;46.050;38.164;2023-02-04T05:23:35;12.98;;;5.43;;
75684;SDS011;64298;46.050;38.164;2023-02-04T05:26:01;16.17;;;6.70;;
75684;SDS011;64298;46.050;38.164;2023-02-04T05:28:27;14.02;;;7.68;;
75684;SDS011;64298;46.050;38.164;2023-02-04T05:30:52;13.40;;;6.50;;
75684;SDS011;64298;46.050;38.164;2023-02-04T05:33:18;15.40;;;5.82;;
75684;SDS011;64298;46.050;38.164;2023-02-04T05:35:44;13.77;;;6.68;;
75684;SDS011;64298;46.050;38.164;2023-02-04T05:38:10;14.27;;;6.55;;
75684;SDS011;64298;46.050;38.164;2023-02-04T05:40:36;11.88;;;5.85;;
75684;SDS011;64298;46.050;38.164;2023-02-04T05:43:20;14.27;;;6.15;;
75684;SDS011;64298;46.050;38.164;2023-02-04T05:45:46;14.18;;;6.72;;
75684;SDS011;64298;46.050;38.164;2023-02-04T05:48:12;15.68;;;6.63;;
75684;SDS011;64298;46.050;38.164;2023-02-04T05:50:56;12.57;;;5.40;;
75684;SDS011;64298;46.050;38.164;2023-02-04T05:53:22;12.18;;;5.35;;
75684;SDS011;64298;46.050;38.164;2023-02-04T05:55:48;10.57;;;5.97;;
75684;SDS011;64298;46.050;38.164;2023-02-04T05:58:14;11.63;;;5.65;;
75684;SDS011;64298;46.050;38.164;2023-02-04T06:00:40;14.07;;;6.28;;
75684;SDS011;64298;46.050;38.164;2023-02-04T06:03:06;15.68;;;6.72;;
75684;SDS011;64298;46.050;38.164;2023-02-04T06:05:32;13.18;;;6.68;;
75684;SDS011;64298;46.050;38.164;2023-02-04T06:07:58;11.40;;;5.47;;
75684;SDS011;64298;46.050;38.164;2023-02-04T06:10:24;11.68;;;5.72;;
75684;SDS011;64298;46.050;38.164;2023-02-04T06:12:50;10.57;;;4.95;;
75684;SDS011;64298;46.050;38.164;2023-02-04T06:15:16;11.00;;;5.70;;
75684;SDS011;64298;46.050;38.164;2023-02-04T06:17:42;13.40;;;6.53;;
75684;SDS011;64298;46.050;38.164;2023-02-04T06:20:08;11.57;;;5.75;;
75684;SDS011;64298;46.050;38.164;2023-02-04T06:22:35;14.25;;;6.47;;
75684;SDS011;64298;46.050;38.164;2023-02-04T06:25:00;16.08;;;7.43;;
75684;SDS011;64298;46.050;38.164;2023-02-04T06:27:26;15.35;;;7.43;;
75684;SDS011;64298;46.050;38.164;2023-02-04T06:29:52;15.65;;;6.90;;
75684;SDS011;64298;46.050;38.164;2023-02-04T06:32:19;15.43;;;7.65;;
75684;SDS011;64298;46.050;38.164;2023-02-04T06:34:45;14.65;;;6.28;;
75684;SDS011;64298;46.050;38.164;2023-02-04T06:37:12;17.48;;;9.07;;
75684;SDS011;64298;46.050;38.164;2023-02-04T06:39:38;17.55;;;9.77;;
75684;SDS011;64298;46.050;38.164;2023-02-04T06:42:04;16.75;;;8.38;;
75684;SDS011;64298;46.050;38.164;2023-02-04T06:44:30;17.20;;;7.70;;
75684;SDS011;64298;46.050;38.164;2023-02-04T06:47:15;20.38;;;8.15;;
75684;SDS011;64298;46.050;38.164;2023-02-04T06:49:41;17.48;;;8.60;;
75684;SDS011;64298;46.050;38.164;2023-02-04T06:52:07;20.15;;;8.82;;
75684;SDS011;64298;46.050;38.164;2023-02-04T06:54:33;18.55;;;7.88;;
75684;SDS011;64298;46.050;38.164;2023-02-04T06:57:00;17.42;;;8.98;;
75684;SDS011;64298;46.050;38.164;2023-02-04T06:59:34;16.90;;;8.20;;
75684;SDS011;64298;46.050;38.164;2023-02-04T07:02:01;17.33;;;7.60;;
75684;SDS011;64298;46.050;38.164;2023-02-04T07:04:28;15.30;;;8.25;;
75684;SDS011;64298;46.050;38.164;2023-02-04T07:06:54;20.48;;;8.90;;
75684;SDS011;64298;46.050;38.164;2023-02-04T07:09:20;16.17;;;7.57;;
75684;SDS011;64298;46.050;38.164;2023-02-04T07:11:46;14.70;;;7.82;;
75684;SDS011;64298;46.050;38.164;2023-02-04T07:14:31;13.10;;;6.57;;
75684;SDS011;64298;46.050;38.164;2023-02-04T07:16:57;20.20;;;9.13;;
75684;SDS011;64298;46.050;38.164;2023-02-04T07:19:23;19.85;;;8.80;;
75684;SDS011;64298;46.050;38.164;2023-02-04T07:21:50;18.60;;;7.30;;
75684;SDS011;64298;46.050;38.164;2023-02-04T07:24:18;17.95;;;6.85;;
75684;SDS011;64298;46.050;38.164;2023-02-04T07:26:45;15.88;;;7.53;;
75684;SDS011;64298;46.050;38.164;2023-02-04T07:29:10;17.05;;;8.00;;
75684;SDS011;64298;46.050;38.164;2023-02-04T07:31:36;18.23;;;7.65;;
75684;SDS011;64298;46.050;38.164;2023-02-04T07:34:02;17.48;;;8.82;;
75684;SDS011;64298;46.050;38.164;2023-02-04T07:36:28;16.63;;;8.63;;
75684;SDS011;64298;46.050;38.164;2023-02-04T07:38:54;13.95;;;5.93;;
75684;SDS011;64298;46.050;38.164;2023-02-04T07:41:20;19.08;;;7.43;;
75684;SDS011;64298;46.050;38.164;2023-02-04T07:43:46;16.15;;;7.22;;
75684;SDS011;64298;46.050;38.164;2023-02-04T07:46:12;15.02;;;7.20;;
75684;SDS011;64298;46.050;38.164;2023-02-04T07:48:38;10.77;;;4.60;;
75684;SDS011;64298;46.050;38.164;2023-02-04T07:51:22;21.00;;;7.40;;
75684;SDS011;64298;46.050;38.164;2023-02-04T07:53:48;13.65;;;6.60;;
75684;SDS011;64298;46.050;38.164;2023-02-04T07:56:14;20.23;;;7.43;;
75684;SDS011;64298;46.050;38.164;2023-02-04T07:58:40;16.75;;;7.55;;
75684;SDS011;64298;46.050;38.164;2023-02-04T08:01:07;12.38;;;5.55;;
75684;SDS011;64298;46.050;38.164;2023-02-04T08:03:33;13.45;;;5.43;;
75684;SDS011;64298;46.050;38.164;2023-02-04T08:05:58;10.98;;;4.25;;
75684;SDS011;64298;46.050;38.164;2023-02-04T08:08:24;7.38;;;2.78;;
75684;SDS011;64298;46.050;38.164;2023-02-04T08:10:50;8.70;;;3.17;;
75684;SDS011;64298;46.050;38.164;2023-02-04T08:13:16;8.07;;;4.15;;
75684;SDS011;64298;46.050;38.164;2023-02-04T08:15:42;8.10;;;4.18;;
75684;SDS011;64298;46.050;38.164;2023-02-04T08:18:08;4.18;;;2.17;;
75684;SDS011;64298;46.050;38.164;2023-02-04T08:20:34;7.20;;;2.95;;
75684;SDS011;64298;46.050;38.164;2023-02-04T08:23:00;4.18;;;2.15;;
75684;SDS011;64298;46.050;38.164;2023-02-04T08:25:26;6.47;;;3.45;;
75684;SDS011;64298;46.050;38.164;2023-02-04T08:28:11;8.88;;;3.60;;
75684;SDS011;64298;46.050;38.164;2023-02-04T08:30:37;8.88;;;4.03;;
75684;SDS011;64298;46.050;38.164;2023-02-04T08:33:03;6.80;;;3.67;;
75684;SDS011;64298;46.050;38.164;2023-02-04T08:35:29;3.38;;;1.75;;
75684;SDS011;64298;46.050;38.164;2023-02-04T08:37:55;6.72;;;2.55;;
75684;SDS011;64298;46.050;38.164;2023-02-04T08:40:21;4.45;;;2.30;;
75684;SDS011;64298;46.050;38.164;2023-02-04T08:42:46;7.50;;;3.47;;
75684;SDS011;64298;46.050;38.164;2023-02-04T08:45:12;5.32;;;2.75;;
75684;SDS011;64298;46.050;38.164;2023-02-04T08:47:38;10.32;;;3.85;;
75684;SDS011;64298;46.050;38.164;2023-02-04T08:50:04;7.13;;;3.33;;
75684;SDS011;64298;46.050;38.164;2023-02-04T08:52:30;6.63;;;3.63;;
75684;SDS011;64298;46.050;38.164;2023-02-04T08:54:56;7.22;;;3.33;;
75684;SDS011;64298;46.050;38.164;2023-02-04T08:57:22;6.20;;;3.25;;
75684;SDS011;64298;46.050;38.164;2023-02-04T08:59:48;6.63;;;3.08;;
75684;SDS011;64298;46.050;38.164;2023-02-04T09:02:14;6.82;;;3.30;;
75684;SDS011;64298;46.050;38.164;2023-02-04T09:04:40;8.23;;;3.35;;
75684;SDS011;64298;46.050;38.164;2023-02-04T09:07:06;7.32;;;3.17;;
75684;SDS011;64298;46.050;38.164;2023-02-04T09:09:32;7.43;;;3.20;;
75684;SDS011;64298;46.050;38.164;2023-02-04T09:11:57;6.18;;;2.10;;
75684;SDS011;64298;46.050;38.164;2023-02-04T09:14:24;10.20;;;4.95;;
75684;SDS011;64298;46.050;38.164;2023-02-04T09:16:49;9.93;;;3.25;;
75684;SDS011;64298;46.050;38.164;2023-02-04T09:19:15;6.70;;;3.20;;
75684;SDS011;64298;46.050;38.164;2023-02-04T09:21:43;7.15;;;3.28;;
75684;SDS011;64298;46.050;38.164;2023-02-04T09:24:27;5.82;;;2.97;;
75684;SDS011;64298;46.050;38.164;2023-02-04T09:26:53;7.20;;;3.08;;
75684;SDS011;64298;46.050;38.164;2023-02-04T09:29:19;8.20;;;3.88;;
75684;SDS011;64298;46.050;38.164;2023-02-04T09:31:45;6.05;;;2.42;;
75684;SDS011;64298;46.050;38.164;2023-02-04T09:34:11;6.75;;;3.25;;
75684;SDS011;64298;46.050;38.164;2023-02-04T09:36:37;6.07;;;2.70;;
75684;SDS011;64298;46.050;38.164;2023-02-04T09:39:04;6.93;;;3.30;;
75684;SDS011;64298;46.050;38.164;2023-02-04T09:41:49;6.80;;;3.25;;
75684;SDS011;64298;46.050;38.164;2023-02-04T09:44:19;8.95;;;3.83;;
75684;SDS011;64298;46.050;38.164;2023-02-04T09:46:47;10.02;;;4.18;;
75684;SDS011;64298;46.050;38.164;2023-02-04T09:49:15;16.98;;;4.32;;
75684;SDS011;64298;46.050;38.164;2023-02-04T09:51:41;7.40;;;3.40;;
75684;SDS011;64298;46.050;38.164;2023-02-04T09:54:18;7.47;;;3.45;;
75684;SDS011;64298;46.050;38.164;2023-02-04T09:56:46;6.43;;;3.53;;
75684;SDS011;64298;46.050;38.164;2023-02-04T09:59:14;7.78;;;4.07;;
75684;SDS011;64298;46.050;38.164;2023-02-04T10:01:42;8.35;;;3.13;;
75684;SDS011;64298;46.050;38.164;2023-02-04T10:04:12;8.30;;;4.57;;
75684;SDS011;64298;46.050;38.164;2023-02-04T10:06:39;8.20;;;4.35;;
75684;SDS011;64298;46.050;38.164;2023-02-04T10:09:10;7.75;;;3.58;;
75684;SDS011;64298;46.050;38.164;2023-02-04T10:11:39;11.68;;;4.22;;
75684;SDS011;64298;46.050;38.164;2023-02-04T10:14:08;6.40;;;3.05;;
75684;SDS011;64298;46.050;38.164;2023-02-04T10:16:38;8.82;;;3.67;;
75684;SDS011;64298;46.050;38.164;2023-02-04T10:19:11;9.63;;;4.03;;
75684;SDS011;64298;46.050;38.164;2023-02-04T10:21:40;7.95;;;3.42;;
75684;SDS011;64298;46.050;38.164;2023-02-04T10:24:13;8.32;;;3.47;;
75684;SDS011;64298;46.050;38.164;2023-02-04T10:26:41;7.70;;;3.55;;
75684;SDS011;64298;46.050;38.164;2023-02-04T10:29:15;9.32;;;3.28;;
75684;SDS011;64298;46.050;38.164;2023-02-04T10:31:43;8.38;;;2.75;;
75684;SDS011;64298;46.050;38.164;2023-02-04T10:36:57;6.15;;;3.03;;
75684;SDS011;64298;46.050;38.164;2023-02-04T10:41:54;7.40;;;3.35;;
75684;SDS011;64298;46.050;38.164;2023-02-04T10:44:32;5.57;;;2.45;;
75684;SDS011;64298;46.050;38.164;2023-02-04T10:47:05;5.18;;;2.35;;
75684;SDS011;64298;46.050;38.164;2023-02-04T10:49:39;7.43;;;3.65;;
75684;SDS011;64298;46.050;38.164;2023-02-04T10:52:15;7.47;;;3.67;;
75684;SDS011;64298;46.050;38.164;2023-02-04T10:54:44;9.95;;;3.50;;
75684;SDS011;64298;46.050;38.164;2023-02-04T10:57:13;5.85;;;2.83;;
75684;SDS011;64298;46.050;38.164;2023-02-04T10:59:57;9.68;;;3.88;;
75684;SDS011;64298;46.050;38.164;2023-02-04T11:02:47;10.38;;;4.18;;
75684;SDS011;64298;46.050;38.164;2023-02-04T11:05:35;4.47;;;1.85;;
75684;SDS011;64298;46.050;38.164;2023-02-04T11:08:02;6.75;;;2.80;;
75684;SDS011;64298;46.050;38.164;2023-02-04T11:10:43;6.45;;;2.85;;
75684;SDS011;64298;46.050;38.164;2023-02-04T11:13:18;8.30;;;5.13;;
75684;SDS011;64298;46.050;38.164;2023-02-04T11:18:56;5.80;;;2.83;;
75684;SDS011;64298;46.050;38.164;2023-02-04T11:21:43;6.30;;;3.50;;
75684;SDS011;64298;46.050;38.164;2023-02-04T11:26:37;5.95;;;3.15;;
75684;SDS011;64298;46.050;38.164;2023-02-04T11:29:24;6.55;;;2.85;;
75684;SDS011;64298;46.050;38.164;2023-02-04T11:39:52;6.68;;;2.72;;
75684;SDS011;64298;46.050;38.164;2023-02-04T11:42:20;8.57;;;3.05;;
75684;SDS011;64298;46.050;38.164;2023-02-04T11:44:58;11.05;;;2.92;;
75684;SDS011;64298;46.050;38.164;2023-02-04T11:47:37;5.63;;;3.03;;
75684;SDS011;64298;46.050;38.164;2023-02-04T11:50:09;7.63;;;3.70;;
75684;SDS011;64298;46.050;38.164;2023-02-04T11:52:58;5.05;;;2.17;;
75684;SDS011;64298;46.050;38.164;2023-02-04T11:55:27;5.03;;;2.28;;
75684;SDS011;64298;46.050;38.164;2023-02-04T11:57:55;7.85;;;2.33;;
75684;SDS011;64298;46.050;38.164;2023-02-04T12:00:22;4.88;;;2.50;;
75684;SDS011;64298;46.050;38.164;2023-02-04T12:02:54;9.15;;;2.65;;
75684;SDS011;64298;46.050;38.164;2023-02-04T12:05:45;5.13;;;1.60;;
75684;SDS011;64298;46.050;38.164;2023-02-04T12:13:47;5.20;;;2.58;;
75684;SDS011;64298;46.050;38.164;2023-02-04T12:16:16;3.40;;;1.35;;
75684;SDS011;64298;46.050;38.164;2023-02-04T12:18:42;3.95;;;1.85;;
75684;SDS011;64298;46.050;38.164;2023-02-04T12:21:08;5.35;;;2.03;;
75684;SDS011;64298;46.050;38.164;2023-02-04T12:23:34;3.80;;;1.75;;
75684;SDS011;64298;46.050;38.164;2023-02-04T12:26:19;4.30;;;1.70;;
75684;SDS011;64298;46.050;38.164;2023-02-04T12:28:44;4.40;;;1.58;;
75684;SDS011;64298;46.050;38.164;2023-02-04T12:31:10;3.92;;;1.75;;
75684;SDS011;64298;46.050;38.164;2023-02-04T12:33:36;3.95;;;1.83;;
75684;SDS011;64298;46.050;38.164;2023-02-04T12:36:02;6.18;;;1.67;;
75684;SDS011;64298;46.050;38.164;2023-02-04T12:38:29;4.68;;;2.00;;
75684;SDS011;64298;46.050;38.164;2023-02-04T12:40:55;4.70;;;1.92;;
75684;SDS011;64298;46.050;38.164;2023-02-04T12:43:20;5.28;;;2.33;;
75684;SDS011;64298;46.050;38.164;2023-02-04T12:45:46;5.55;;;2.33;;
75684;SDS011;64298;46.050;38.164;2023-02-04T12:48:14;4.32;;;2.00;;
75684;SDS011;64298;46.050;38.164;2023-02-04T12:50:39;5.03;;;1.65;;
75684;SDS011;64298;46.050;38.164;2023-02-04T12:53:05;4.15;;;1.77;;
75684;SDS011;64298;46.050;38.164;2023-02-04T12:55:31;7.10;;;2.00;;
75684;SDS011;64298;46.050;38.164;2023-02-04T12:57:57;4.05;;;1.95;;
75684;SDS011;64298;46.050;38.164;2023-02-04T13:00:23;5.68;;;2.13;;
75684;SDS011;64298;46.050;38.164;2023-02-04T13:05:19;3.03;;;1.25;;
75684;SDS011;64298;46.050;38.164;2023-02-04T13:07:45;4.85;;;2.05;;
75684;SDS011;64298;46.050;38.164;2023-02-04T13:10:11;3.53;;;1.45;;
75684;SDS011;64298;46.050;38.164;2023-02-04T13:12:56;4.18;;;1.58;;
75684;SDS011;64298;46.050;38.164;2023-02-04T13:15:22;3.67;;;1.75;;
75684;SDS011;64298;46.050;38.164;2023-02-04T13:17:48;3.55;;;1.38;;
75684;SDS011;64298;46.050;38.164;2023-02-04T13:20:15;3.65;;;1.42;;
75684;SDS011;64298;46.050;38.164;2023-02-04T13:22:41;4.13;;;1.27;;
75684;SDS011;64298;46.050;38.164;2023-02-04T13:25:07;3.30;;;1.58;;
75684;SDS011;64298;46.050;38.164;2023-02-04T13:27:36;3.33;;;1.52;;
75684;SDS011;64298;46.050;38.164;2023-02-04T13:30:06;4.70;;;1.88;;
75684;SDS011;64298;46.050;38.164;2023-02-04T13:34:58;3.67;;;1.48;;
75684;SDS011;64298;46.050;38.164;2023-02-04T13:37:24;3.90;;;1.45;;
75684;SDS011;64298;46.050;38.164;2023-02-04T13:39:50;3.72;;;1.50;;
75684;SDS011;64298;46.050;38.164;2023-02-04T13:42:16;4.10;;;1.23;;
75684;SDS011;64298;46.050;38.164;2023-02-04T13:44:42;5.00;;;1.95;;
75684;SDS011;64298;46.050;38.164;2023-02-04T13:47:08;3.30;;;1.27;;
75684;SDS011;64298;46.050;38.164;2023-02-04T13:49:34;5.25;;;1.48;;
75684;SDS011;64298;46.050;38.164;2023-02-04T13:52:00;3.08;;;1.38;;
75684;SDS011;64298;46.050;38.164;2023-02-04T13:54:26;5.95;;;1.75;;
75684;SDS011;64298;46.050;38.164;2023-02-04T13:56:52;6.00;;;1.83;;
75684;SDS011;64298;46.050;38.164;2023-02-04T13:59:18;8.73;;;3.28;;
75684;SDS011;64298;46.050;38.164;2023-02-04T14:01:43;22.80;;;9.32;;
75684;SDS011;64298;46.050;38.164;2023-02-04T14:04:09;8.70;;;3.78;;
75684;SDS011;64298;46.050;38.164;2023-02-04T14:06:35;12.00;;;1.98;;
75684;SDS011;64298;46.050;38.164;2023-02-04T14:09:08;3.80;;;1.52;;
75684;SDS011;64298;46.050;38.164;2023-02-04T14:11:36;3.88;;;1.42;;
75684;SDS011;64298;46.050;38.164;2023-02-04T14:14:02;6.07;;;2.33;;
75684;SDS011;64298;46.050;38.164;2023-02-04T14:16:28;8.18;;;3.72;;
75684;SDS011;64298;46.050;38.164;2023-02-04T14:18:54;10.27;;;3.03;;
75684;SDS011;64298;46.050;38.164;2023-02-04T14:21:20;3.53;;;1.48;;
75684;SDS011;64298;46.050;38.164;2023-02-04T14:23:47;14.23;;;2.10;;
75684;SDS011;64298;46.050;38.164;2023-02-04T14:26:13;4.85;;;2.35;;
75684;SDS011;64298;46.050;38.164;2023-02-04T14:28:39;4.32;;;1.83;;
75684;SDS011;64298;46.050;38.164;2023-02-04T14:31:05;4.00;;;1.77;;
75684;SDS011;64298;46.050;38.164;2023-02-04T14:33:31;4.95;;;1.85;;
75684;SDS011;64298;46.050;38.164;2023-02-04T14:35:57;17.15;;;1.58;;
75684;SDS011;64298;46.050;38.164;2023-02-04T14:38:23;10.82;;;1.55;;
75684;SDS011;64298;46.050;38.164;2023-02-04T14:40:56;8.27;;;2.00;;
75684;SDS011;64298;46.050;38.164;2023-02-04T14:43:22;3.58;;;1.63;;
75684;SDS011;64298;46.050;38.164;2023-02-04T14:45:49;4.10;;;1.42;;
75684;SDS011;64298;46.050;38.164;2023-02-04T14:48:14;4.55;;;1.85;;
75684;SDS011;64298;46.050;38.164;2023-02-04T14:50:40;3.95;;;1.98;;
75684;SDS011;64298;46.050;38.164;2023-02-04T14:53:06;8.45;;;1.90;;
75684;SDS011;64298;46.050;38.164;2023-02-04T14:55:32;3.20;;;1.40;;
75684;SDS011;64298;46.050;38.164;2023-02-04T14:57:58;17.80;;;2.03;;
75684;SDS011;64298;46.050;38.164;2023-02-04T15:00:24;6.30;;;1.73;;
75684;SDS011;64298;46.050;38.164;2023-02-04T15:02:50;3.13;;;1.23;;